Time;durP1;ratioP1;P1;durP2;ratioP2;P2;SDS_P1;SDS_P2;PMS_P1;PMS_P2;Temp;Humidity;BMP_temperature;BMP_pressure;BME280_temperature;BME280_humidity;BME280_pressure;Samples;Min_cycle;Max_cycle;Signal;HPM_P1;HPM_P2
2024/03/25 00:01:24;;;;;;;20.27;6.13;;;6.00;99.90;;;;;;5071518;28;20032;-51
2024/03/25 00:03:50;;;;;;;25.00;9.23;;;6.00;99.90;;;;;;5071618;28;20064;-49
2024/03/25 00:06:16;;;;;;;35.73;11.37;;;6.00;99.90;;;;;;5071265;28;20056;-51
2024/03/25 00:08:42;;;;;;;32.23;13.80;;;6.00;99.90;;;;;;5071514;28;20078;-50
2024/03/25 00:11:07;;;;;;;31.83;11.37;;;5.90;99.90;;;;;;5071529;28;20493;-50
2024/03/25 00:13:33;;;;;;;33.00;13.60;;;6.00;99.90;;;;;;5071491;28;20028;-51
2024/03/25 00:15:59;;;;;;;32.60;12.67;;;5.90;99.90;;;;;;5071309;28;20032;-53
2024/03/25 00:18:24;;;;;;;37.87;13.47;;;6.00;99.90;;;;;;5073948;28;20470;-49
2024/03/25 00:20:51;;;;;;;34.13;13.73;;;6.00;99.90;;;;;;5075356;28;20028;-50
2024/03/25 00:23:17;;;;;;;38.80;12.43;;;6.00;99.90;;;;;;5075197;28;20443;-50
2024/03/25 00:25:42;;;;;;;29.80;13.17;;;5.90;99.90;;;;;;5075163;28;20036;-48
2024/03/25 00:28:08;;;;;;;36.47;14.53;;;5.80;99.90;;;;;;5075225;28;20055;-50
2024/03/25 00:30:34;;;;;;;29.77;11.10;;;5.70;99.90;;;;;;5075052;28;20124;-50
2024/03/25 00:32:59;;;;;;;31.40;9.17;;;5.70;99.90;;;;;;5075053;28;20078;-50
2024/03/25 00:35:25;;;;;;;35.17;7.70;;;5.70;99.90;;;;;;5074850;28;20028;-49
2024/03/25 00:37:51;;;;;;;28.87;5.97;;;5.60;99.90;;;;;;5075089;28;20025;-48
2024/03/25 00:40:17;;;;;;;24.67;5.83;;;5.60;99.90;;;;;;5074975;28;20385;-48
2024/03/25 00:42:42;;;;;;;20.13;5.30;;;5.60;99.90;;;;;;5074968;28;20477;-49
2024/03/25 00:45:08;;;;;;;22.23;5.20;;;5.50;99.90;;;;;;5074907;28;20028;-49
2024/03/25 00:47:34;;;;;;;27.37;6.37;;;5.40;99.90;;;;;;5074975;28;20082;-51
2024/03/25 00:50:00;;;;;;;26.27;5.33;;;5.30;99.90;;;;;;5074877;28;20040;-49
2024/03/25 00:52:25;;;;;;;19.90;4.40;;;5.30;99.90;;;;;;5074692;28;20035;-51
2024/03/25 00:54:51;;;;;;;26.73;4.30;;;5.20;99.90;;;;;;5074620;28;20047;-51
2024/03/25 00:57:18;;;;;;;18.53;3.30;;;5.10;99.90;;;;;;5074533;28;20043;-49
2024/03/25 00:59:44;;;;;;;22.47;3.67;;;5.20;99.90;;;;;;5074504;28;20078;-49
2024/03/25 01:02:09;;;;;;;23.73;4.13;;;5.10;99.90;;;;;;5074627;28;20366;-48
2024/03/25 01:04:35;;;;;;;18.13;3.70;;;5.00;99.90;;;;;;5074505;28;20021;-49
2024/03/25 01:07:00;;;;;;;16.50;3.23;;;5.10;99.90;;;;;;5074433;28;20505;-48
2024/03/25 01:09:26;;;;;;;24.70;3.10;;;5.10;99.90;;;;;;5074413;28;20068;-48
2024/03/25 01:11:52;;;;;;;23.00;5.03;;;5.00;99.90;;;;;;5074397;28;20068;-48
2024/03/25 01:14:17;;;;;;;19.03;3.57;;;5.00;99.90;;;;;;5056309;28;20082;-49
2024/03/25 01:16:43;;;;;;;17.10;3.33;;;5.00;99.90;;;;;;5074289;28;20032;-51
2024/03/25 01:19:09;;;;;;;21.77;4.77;;;5.00;99.90;;;;;;5074316;28;20035;-50
2024/03/25 01:21:34;;;;;;;19.83;3.50;;;4.90;99.90;;;;;;5074118;28;20052;-50
2024/03/25 01:24:01;;;;;;;19.83;3.53;;;4.90;99.90;;;;;;5074252;28;20063;-50
2024/03/25 01:26:27;;;;;;;16.90;3.50;;;4.90;99.90;;;;;;5056171;28;20036;-48
2024/03/25 01:28:52;;;;;;;23.10;3.87;;;4.80;99.90;;;;;;5072836;28;20487;-48
2024/03/25 01:31:19;;;;;;;24.63;3.63;;;4.80;99.90;;;;;;5056228;28;20052;-48
2024/03/25 01:33:45;;;;;;;21.03;3.90;;;4.80;99.90;;;;;;5074101;28;20048;-51
2024/03/25 01:36:16;;;;;;;20.17;3.40;;;4.70;99.90;;;;;;5073736;28;20024;-49
2024/03/25 01:38:41;;;;;;;19.33;3.57;;;4.70;99.90;;;;;;5074106;28;20028;-49
2024/03/25 01:41:12;;;;;;;13.83;3.23;;;4.70;99.90;;;;;;5073860;28;20402;-49
2024/03/25 01:43:38;;;;;;;13.93;3.07;;;4.70;99.90;;;;;;5073977;28;20074;-49
2024/03/25 01:46:05;;;;;;;21.43;4.00;;;4.70;99.90;;;;;;5073777;28;20036;-48
2024/03/25 01:48:31;;;;;;;19.47;3.30;;;4.70;99.90;;;;;;5074208;28;20044;-52
2024/03/25 01:50:58;;;;;;;23.27;3.53;;;4.60;99.90;;;;;;5056053;28;20489;-48
2024/03/25 01:53:25;;;;;;;20.00;3.27;;;4.60;99.90;;;;;;5074324;28;20371;-50
2024/03/25 01:55:54;;;;;;;16.77;3.47;;;4.50;99.90;;;;;;5073961;28;20401;-49
2024/03/25 01:58:21;;;;;;;;;;;4.50;99.90;;;;;;5075032;28;20098;-49
2024/03/25 02:00:47;;;;;;;23.17;4.37;;;4.50;99.90;;;;;;5074599;28;19919;-50
2024/03/25 02:03:12;;;;;;;15.43;3.03;;;4.50;99.90;;;;;;5075244;28;20488;-49
2024/03/25 02:05:38;;;;;;;20.83;3.13;;;4.50;99.90;;;;;;5056968;28;20059;-48
2024/03/25 02:08:05;;;;;;;26.27;3.37;;;4.50;99.90;;;;;;5075126;28;20028;-49
2024/03/25 02:10:32;;;;;;;20.03;3.33;;;4.50;99.90;;;;;;5074861;28;20032;-48
2024/03/25 02:12:58;;;;;;;23.90;3.77;;;4.40;99.90;;;;;;5075179;28;20056;-50
2024/03/25 02:15:26;;;;;;;22.33;3.83;;;4.40;99.90;;;;;;5056045;28;20066;-49
2024/03/25 02:17:51;;;;;;;26.00;3.60;;;4.40;99.90;;;;;;5073191;28;20500;-53
2024/03/25 02:20:17;;;;;;;16.87;3.63;;;4.40;99.90;;;;;;5073062;28;20021;-50
2024/03/25 02:22:43;;;;;;;19.07;3.47;;;4.40;99.90;;;;;;5073208;28;20470;-50
2024/03/25 02:25:10;;;;;;;16.23;4.10;;;4.30;99.90;;;;;;5072861;28;20028;-50
2024/03/25 02:27:37;;;;;;;16.83;3.67;;;4.30;99.90;;;;;;5073029;28;20116;-51
2024/03/25 02:30:08;;;;;;;19.00;3.33;;;4.30;99.90;;;;;;5072840;28;20031;-54
2024/03/25 02:32:34;;;;;;;20.90;3.77;;;4.20;99.90;;;;;;5072982;28;20070;-48
2024/03/25 02:35:03;;;;;;;15.77;3.30;;;4.20;99.90;;;;;;5072834;28;20036;-49
2024/03/25 02:37:29;;;;;;;24.58;4.05;;;4.20;99.90;;;;;;5072712;28;20037;-53
2024/03/25 02:39:57;;;;;;;28.80;4.57;;;4.20;99.90;;;;;;5072411;28;20032;-50
2024/03/25 02:42:24;;;;;;;22.40;3.77;;;4.20;99.90;;;;;;5072749;28;20086;-48
2024/03/25 02:44:50;;;;;;;25.87;4.70;;;4.20;99.90;;;;;;5072432;28;20057;-52
2024/03/25 02:47:17;;;;;;;33.67;4.67;;;4.30;99.90;;;;;;5072632;28;20032;-48
2024/03/25 02:49:43;;;;;;;19.67;4.83;;;4.20;99.90;;;;;;5072532;28;20481;-48
2024/03/25 02:52:08;;;;;;;20.83;5.70;;;4.20;99.90;;;;;;5071394;28;20040;-52
2024/03/25 02:54:34;;;;;;;17.97;4.00;;;4.20;99.90;;;;;;5072330;28;20024;-51
2024/03/25 02:57:00;;;;;;;29.93;4.53;;;4.20;99.90;;;;;;5072650;28;20481;-52
2024/03/25 02:59:25;;;;;;;25.77;4.63;;;4.10;99.90;;;;;;5072277;28;20031;-51
2024/03/25 03:01:51;;;;;;;22.07;4.87;;;4.10;99.90;;;;;;5072245;28;20115;-49
2024/03/25 03:04:16;;;;;;;29.27;4.83;;;4.20;99.90;;;;;;5072250;28;20032;-50
2024/03/25 03:06:42;;;;;;;31.67;4.87;;;4.10;99.90;;;;;;5072167;28;20028;-48
2024/03/25 03:09:07;;;;;;;27.97;4.73;;;4.10;99.90;;;;;;5072223;28;20474;-50
2024/03/25 03:11:33;;;;;;;26.03;7.53;;;4.10;99.90;;;;;;5072177;28;20107;-51
2024/03/25 03:13:59;;;;;;;18.17;5.23;;;4.10;99.90;;;;;;5072073;28;20060;-52
2024/03/25 03:16:25;;;;;;;17.90;4.57;;;4.20;99.90;;;;;;5071854;28;20060;-49
2024/03/25 03:18:50;;;;;;;30.87;6.17;;;4.20;99.90;;;;;;5072033;28;20048;-48
2024/03/25 03:21:16;;;;;;;24.17;4.70;;;4.20;99.90;;;;;;5072031;28;20031;-49
2024/03/25 03:23:42;;;;;;;20.73;5.27;;;4.30;99.90;;;;;;5072133;28;20025;-48
2024/03/25 03:26:07;;;;;;;20.90;4.73;;;4.40;99.90;;;;;;5071836;28;20032;-51
2024/03/25 03:28:33;;;;;;;22.20;5.47;;;4.50;99.90;;;;;;5071801;28;20079;-50
2024/03/25 03:30:58;;;;;;;22.90;5.50;;;4.50;99.90;;;;;;5071975;28;20028;-48
2024/03/25 03:33:24;;;;;;;20.17;5.23;;;4.50;99.90;;;;;;5071931;28;20457;-49
2024/03/25 03:35:50;;;;;;;19.17;4.80;;;4.50;99.90;;;;;;5071645;28;20040;-48
2024/03/25 03:38:15;;;;;;;23.00;5.10;;;4.50;99.90;;;;;;5071915;28;20033;-49
2024/03/25 03:40:41;;;;;;;25.77;4.97;;;4.50;99.90;;;;;;5071765;28;20029;-51
2024/03/25 03:43:06;;;;;;;21.10;4.90;;;4.60;99.90;;;;;;5071725;28;20064;-47
2024/03/25 03:45:35;;;;;;;22.03;4.77;;;4.50;99.90;;;;;;5071550;28;20025;-51
2024/03/25 03:48:01;;;;;;;20.63;4.40;;;4.50;99.90;;;;;;5071763;28;20036;-47
2024/03/25 03:50:27;;;;;;;30.50;6.33;;;4.50;99.90;;;;;;5071563;28;20074;-48
2024/03/25 03:52:52;;;;;;;23.77;4.03;;;4.60;99.90;;;;;;5071105;28;20032;-49
2024/03/25 03:55:19;;;;;;;19.43;5.10;;;4.70;99.90;;;;;;5053303;28;20040;-50
2024/03/25 03:57:45;;;;;;;18.33;4.40;;;4.60;99.90;;;;;;5071534;28;20079;-49
2024/03/25 04:00:11;;;;;;;25.03;6.03;;;4.60;99.90;;;;;;5071593;28;20482;-49
2024/03/25 04:02:38;;;;;;;23.23;5.00;;;4.60;99.90;;;;;;5071791;28;20071;-50
2024/03/25 04:05:04;;;;;;;16.33;4.70;;;4.50;99.90;;;;;;5071403;28;20061;-51
2024/03/25 04:07:30;;;;;;;23.57;5.33;;;4.50;99.90;;;;;;5071535;28;20094;-49
2024/03/25 04:09:59;;;;;;;16.87;4.83;;;4.50;99.90;;;;;;5071588;28;20040;-49
2024/03/25 04:12:25;;;;;;;31.95;6.57;;;4.50;99.90;;;;;;5071396;28;20055;-53
2024/03/25 04:14:54;;;;;;;30.73;5.40;;;4.40;99.90;;;;;;5071390;28;20473;-52
2024/03/25 04:17:21;;;;;;;22.67;4.80;;;4.40;99.90;;;;;;5070308;28;20493;-51
2024/03/25 04:19:48;;;;;;;23.57;5.20;;;4.40;99.90;;;;;;5071327;28;20112;-48
2024/03/25 04:22:13;;;;;;;21.53;5.40;;;4.40;99.90;;;;;;5071520;28;20031;-50
2024/03/25 04:24:39;;;;;;;20.43;5.10;;;4.40;99.90;;;;;;5071322;28;20021;-49
2024/03/25 04:27:05;;;;;;;20.80;4.90;;;4.50;99.90;;;;;;5071318;28;20056;-49
2024/03/25 04:29:30;;;;;;;22.60;5.17;;;4.50;99.90;;;;;;5053344;28;20382;-49
2024/03/25 04:31:56;;;;;;;22.30;5.57;;;4.50;99.90;;;;;;5071387;28;20593;-51
2024/03/25 04:34:23;;;;;;;21.67;5.07;;;4.50;99.90;;;;;;5071337;28;20090;-51
2024/03/25 04:36:49;;;;;;;21.03;5.00;;;4.50;99.90;;;;;;5071176;28;20048;-50
2024/03/25 04:39:14;;;;;;;18.80;4.30;;;4.50;99.90;;;;;;5071261;28;20024;-52
2024/03/25 04:41:40;;;;;;;17.80;4.43;;;4.50;99.90;;;;;;5071060;28;20024;-51
2024/03/25 04:44:06;;;;;;;22.47;5.83;;;4.60;99.90;;;;;;5071142;28;20029;-50
2024/03/25 04:46:31;;;;;;;30.17;5.40;;;4.60;99.90;;;;;;5071133;28;20024;-50
2024/03/25 04:48:57;;;;;;;21.10;5.43;;;4.60;99.90;;;;;;5071155;28;20043;-51
2024/03/25 04:51:23;;;;;;;21.97;5.40;;;4.60;99.90;;;;;;5071265;28;20069;-50
2024/03/25 04:53:48;;;;;;;22.13;5.70;;;4.60;99.90;;;;;;5071189;28;20032;-48
2024/03/25 04:56:14;;;;;;;21.10;5.43;;;4.60;99.90;;;;;;5052750;28;20055;-51
2024/03/25 04:58:39;;;;;;;22.53;4.90;;;4.70;99.90;;;;;;5071150;28;20048;-51
2024/03/25 05:01:05;;;;;;;26.27;5.67;;;4.70;99.90;;;;;;5071266;28;20075;-51
2024/03/25 05:03:31;;;;;;;20.07;4.70;;;4.60;99.90;;;;;;5072310;28;20390;-49
2024/03/25 05:05:56;;;;;;;26.70;5.53;;;4.50;99.90;;;;;;5074563;28;20441;-49
2024/03/25 05:08:22;;;;;;;18.93;5.07;;;4.50;99.90;;;;;;5075208;28;20028;-52
2024/03/25 05:10:48;;;;;;;14.20;5.50;;;4.50;99.90;;;;;;5074537;28;20056;-53
2024/03/25 05:13:13;;;;;;;27.00;5.03;;;4.40;99.90;;;;;;5074488;28;20052;-52
2024/03/25 05:15:39;;;;;;;27.33;5.57;;;4.50;99.90;;;;;;5074359;28;20032;-48
2024/03/25 05:18:07;;;;;;;29.47;5.27;;;4.40;99.90;;;;;;5074682;28;20027;-49
2024/03/25 05:20:32;;;;;;;22.57;6.80;;;4.40;99.90;;;;;;5074243;28;20017;-47
2024/03/25 05:22:58;;;;;;;19.80;5.40;;;4.40;99.90;;;;;;5074364;28;20374;-53
2024/03/25 05:25:28;;;;;;;23.77;5.57;;;4.40;99.90;;;;;;5073943;28;20027;-50
2024/03/25 05:27:54;;;;;;;18.93;4.90;;;4.30;99.90;;;;;;5074240;28;20116;-50
2024/03/25 05:30:19;;;;;;;24.73;5.40;;;4.30;99.90;;;;;;5074078;28;20112;-52
2024/03/25 05:32:45;;;;;;;15.93;5.10;;;4.30;99.90;;;;;;5074200;28;20044;-52
2024/03/25 05:35:11;;;;;;;39.23;7.77;;;4.30;99.90;;;;;;5055952;28;20116;-50
2024/03/25 05:37:37;;;;;;;22.93;5.37;;;4.30;99.90;;;;;;5073890;28;20037;-49
2024/03/25 05:40:03;;;;;;;24.57;5.40;;;4.40;99.90;;;;;;5073739;28;20035;-50
2024/03/25 05:42:29;;;;;;;17.40;5.63;;;4.50;99.90;;;;;;5073997;28;20020;-52
2024/03/25 05:44:54;;;;;;;19.37;5.70;;;4.50;99.90;;;;;;5073712;28;20388;-53
2024/03/25 05:47:20;;;;;;;21.67;6.03;;;4.60;99.90;;;;;;5073847;28;20074;-52
2024/03/25 05:49:47;;;;;;;24.07;6.00;;;4.70;99.90;;;;;;5073806;28;20502;-49
2024/03/25 05:52:12;;;;;;;22.47;6.10;;;4.70;99.90;;;;;;5055948;28;20067;-51
2024/03/25 05:54:38;;;;;;;22.37;5.17;;;4.80;99.90;;;;;;5073472;28;20102;-51
2024/03/25 05:57:04;;;;;;;19.77;5.07;;;4.90;99.90;;;;;;5073406;28;20393;-53
2024/03/25 05:59:29;;;;;;;23.07;6.07;;;5.00;99.90;;;;;;5073596;28;20465;-48
2024/03/25 06:01:55;;;;;;;20.50;5.30;;;5.00;99.90;;;;;;5073561;28;20055;-54
2024/03/25 06:04:20;;;;;;;17.40;4.80;;;5.10;99.90;;;;;;5073496;28;20431;-52
2024/03/25 06:06:46;;;;;;;21.63;5.97;;;5.10;99.90;;;;;;5073411;28;20063;-52
2024/03/25 06:09:12;;;;;;;22.77;6.07;;;5.20;99.90;;;;;;5055435;28;20036;-53
2024/03/25 06:11:37;;;;;;;20.63;4.70;;;5.30;99.90;;;;;;5072215;28;20025;-50
2024/03/25 06:14:03;;;;;;;21.83;5.30;;;5.30;99.90;;;;;;5073209;28;20385;-51
2024/03/25 06:16:28;;;;;;;20.90;5.63;;;5.30;99.90;;;;;;5072704;28;20035;-49
2024/03/25 06:18:54;;;;;;;23.97;5.67;;;5.30;99.90;;;;;;5055405;28;20082;-50
2024/03/25 06:21:19;;;;;;;23.87;6.03;;;5.30;99.90;;;;;;5073240;28;20044;-51
2024/03/25 06:23:45;;;;;;;23.80;6.03;;;5.30;99.90;;;;;;5073036;28;20079;-51
2024/03/25 06:26:11;;;;;;;20.23;5.93;;;5.40;99.90;;;;;;5073292;28;20513;-50
2024/03/25 06:28:38;;;;;;;18.17;5.83;;;5.40;99.90;;;;;;5072916;28;20040;-50
2024/03/25 06:36:35;;;;;;;25.03;5.13;;;5.60;99.90;;;;;;5072787;28;20432;-49
2024/03/25 06:39:01;;;;;;;26.83;5.57;;;5.60;99.90;;;;;;5072758;28;20024;-49
2024/03/25 06:41:26;;;;;;;20.60;5.30;;;5.70;99.90;;;;;;5071497;28;20536;-51
2024/03/25 06:43:52;;;;;;;19.90;4.70;;;5.80;99.90;;;;;;5072707;28;20032;-52
2024/03/25 06:46:17;;;;;;;27.27;6.73;;;5.80;99.90;;;;;;5072434;28;20397;-49
2024/03/25 06:48:43;;;;;;;24.00;5.57;;;5.80;99.90;;;;;;5072584;28;20104;-50
2024/03/25 06:51:08;;;;;;;23.20;5.93;;;5.90;99.90;;;;;;5072505;28;20039;-50
2024/03/25 06:53:34;;;;;;;23.90;5.50;;;6.00;99.90;;;;;;5072809;28;20438;-50
2024/03/25 06:56:01;;;;;;;21.00;5.60;;;6.00;99.90;;;;;;5072147;28;20043;-50
2024/03/25 06:58:27;;;;;;;21.10;5.13;;;6.00;99.90;;;;;;5072466;28;20123;-49
2024/03/25 07:00:54;;;;;;;24.73;5.50;;;6.20;99.90;;;;;;5072330;28;20047;-50
2024/03/25 07:03:21;;;;;;;22.50;5.07;;;6.20;99.90;;;;;;5072344;28;20032;-49
2024/03/25 07:05:52;;;;;;;22.07;5.37;;;6.30;99.90;;;;;;5072167;28;20085;-49
2024/03/25 07:08:19;;;;;;;19.37;4.87;;;6.30;99.90;;;;;;5072254;28;20033;-50
2024/03/25 07:10:45;;;;;;;19.07;4.97;;;6.40;99.90;;;;;;5072301;28;20028;-49
2024/03/25 07:13:12;;;;;;;19.07;4.27;;;6.60;99.90;;;;;;5054420;28;20059;-52
2024/03/25 07:15:38;;;;;;;17.73;5.20;;;6.60;99.90;;;;;;5071747;28;20032;-52
2024/03/25 07:18:04;;;;;;;18.13;4.67;;;6.80;99.90;;;;;;5072181;28;20032;-50
2024/03/25 07:20:30;;;;;;;18.83;5.27;;;6.90;99.90;;;;;;5072050;28;20027;-50
2024/03/25 07:22:57;;;;;;;14.10;5.30;;;7.10;99.90;;;;;;5072050;28;20020;-50
2024/03/25 07:25:26;;;;;;;17.37;5.60;;;7.20;99.90;;;;;;5072048;28;20036;-50
2024/03/25 07:27:55;;;;;;;18.02;4.38;;;7.40;99.90;;;;;;5071265;28;20056;-51
2024/03/25 07:30:22;;;;;;;21.67;5.15;;;7.80;99.90;;;;;;5072480;28;20482;-53
2024/03/25 07:32:47;;;;;;;26.37;5.53;;;8.20;99.90;;;;;;5072078;28;20033;-52
2024/03/25 07:35:16;;;;;;;16.73;5.23;;;8.90;99.90;;;;;;5071863;28;20023;-52
2024/03/25 07:37:43;;;;;;;19.33;4.73;;;9.50;99.90;;;;;;5072007;28;20081;-51
2024/03/25 07:40:11;;;;;;;16.00;4.93;;;9.80;99.90;;;;;;5070715;28;20166;-51
2024/03/25 07:42:37;;;;;;;19.10;5.13;;;10.00;99.90;;;;;;5071914;28;20040;-52
2024/03/25 07:45:04;;;;;;;20.15;4.80;;;10.30;99.90;;;;;;5071634;28;20024;-50
2024/03/25 07:47:30;;;;;;;16.88;4.53;;;10.40;99.90;;;;;;5053902;28;20040;-51
2024/03/25 07:49:56;;;;;;;19.35;4.65;;;10.30;99.90;;;;;;5071710;28;20032;-50
2024/03/25 07:52:22;;;;;;;19.23;5.00;;;10.10;99.90;;;;;;5071797;28;20035;-53
2024/03/25 07:54:47;;;;;;;16.77;4.47;;;10.00;99.90;;;;;;5071726;28;20090;-50
2024/03/25 07:57:13;;;;;;;19.42;4.80;;;10.00;99.90;;;;;;5071667;28;20031;-51
2024/03/25 07:59:38;;;;;;;15.90;3.78;;;9.90;99.90;;;;;;5071775;28;20449;-47
2024/03/25 08:02:04;;;;;;;18.20;3.85;;;10.00;99.90;;;;;;5071831;28;20028;-51
2024/03/25 08:04:30;;;;;;;12.77;3.17;;;10.00;99.90;;;;;;5071548;28;20025;-50
2024/03/25 08:06:56;;;;;;;22.23;3.92;;;10.20;99.90;;;;;;5071646;28;20370;-51
2024/03/25 08:09:22;;;;;;;12.88;3.38;;;10.20;99.90;;;;;;5071713;28;20081;-50
2024/03/25 08:11:47;;;;;;;18.83;3.90;;;10.60;99.90;;;;;;5071456;28;20029;-51
2024/03/25 08:14:13;;;;;;;12.40;4.00;;;10.90;99.90;;;;;;5071615;28;20039;-51
2024/03/25 08:16:38;;;;;;;10.00;3.20;;;11.10;99.90;;;;;;5071625;28;20381;-53
2024/03/25 08:19:05;;;;;;;16.23;3.78;;;11.40;99.90;;;;;;5071581;28;20029;-53
2024/03/25 08:21:31;;;;;;;15.07;3.10;;;11.60;99.90;;;;;;5071506;28;20029;-52
2024/03/25 08:23:57;;;;;;;19.65;3.75;;;11.40;99.90;;;;;;5071472;28;20492;-50
2024/03/25 08:26:22;;;;;;;13.38;3.63;;;11.60;99.90;;;;;;5071420;28;20020;-53
2024/03/25 08:28:50;;;;;;;13.82;3.28;;;11.50;99.90;;;;;;5071497;28;20427;-52
2024/03/25 08:31:16;;;;;;;11.37;2.73;;;11.50;99.90;;;;;;5071438;28;20519;-52
2024/03/25 08:33:42;;;;;;;14.82;3.50;;;11.50;99.90;;;;;;5071417;28;20036;-48
2024/03/25 08:36:07;;;;;;;13.73;4.63;;;11.80;99.90;;;;;;5071154;28;20032;-49
2024/03/25 08:38:33;;;;;;;19.92;4.57;;;12.40;99.90;;;;;;5072355;28;20029;-53
2024/03/25 08:40:59;;;;;;;15.00;3.33;;;12.70;99.90;;;;;;5074970;28;20389;-48
2024/03/25 08:43:25;;;;;;;9.98;3.08;;;13.00;99.90;;;;;;5075642;28;20111;-50
2024/03/25 08:45:51;;;;;;;11.40;2.65;;;13.00;99.90;;;;;;5075410;28;20063;-48
2024/03/25 08:48:17;;;;;;;10.20;3.10;;;13.20;99.90;;;;;;5075304;28;20566;-51
2024/03/25 08:50:42;;;;;;;11.65;2.90;;;13.10;99.90;;;;;;5075543;28;20040;-49
2024/03/25 08:53:08;;;;;;;15.70;3.35;;;12.90;99.90;;;;;;5075537;28;20028;-48
2024/03/25 08:55:33;;;;;;;9.80;2.35;;;12.70;99.90;;;;;;5075153;28;20393;-48
2024/03/25 08:57:59;;;;;;;10.80;2.60;;;12.40;99.90;;;;;;5076042;28;20127;-48
2024/03/25 09:00:28;;;;;;;10.65;3.63;;;12.20;99.90;;;;;;5075445;28;20024;-49
2024/03/25 09:02:54;;;;;;;13.93;3.60;;;12.20;99.90;;;;;;5075814;28;20362;-50
2024/03/25 09:05:21;;;;;;;11.70;4.13;;;12.50;99.90;;;;;;5076375;28;20028;-49
2024/03/25 09:07:51;;;;;;;20.95;5.60;;;12.70;99.90;;;;;;5076020;28;20294;-50
2024/03/25 09:13:02;;;;;;;17.95;4.63;;;12.40;99.90;;;;;;5076210;28;20033;-48
2024/03/25 09:15:31;;;;;;;13.02;2.55;;;12.00;99.90;;;;;;5075979;28;20032;-50
2024/03/25 09:17:57;;;;;;;9.43;2.25;;;11.90;99.90;;;;;;5075304;28;20123;-50
2024/03/25 09:20:23;;;;;;;13.45;3.15;;;11.80;99.90;;;;;;5074232;28;20162;-52
2024/03/25 09:22:49;;;;;;;14.57;4.15;;;11.70;99.90;;;;;;5074248;28;20511;-52
2024/03/25 09:25:16;;;;;;;13.90;3.50;;;11.70;99.90;;;;;;5074045;28;20465;-53
2024/03/25 09:27:46;;;;;;;17.25;4.10;;;11.40;99.90;;;;;;5074466;28;20502;-52
2024/03/25 09:30:13;;;;;;;12.93;3.72;;;11.20;99.90;;;;;;5074113;28;20044;-51
2024/03/25 09:32:39;;;;;;;14.93;3.45;;;11.00;99.90;;;;;;5074324;28;20064;-52
2024/03/25 09:35:05;;;;;;;17.73;3.63;;;11.10;99.90;;;;;;5074242;28;20090;-52
2024/03/25 09:37:31;;;;;;;12.73;2.78;;;11.30;99.90;;;;;;5073996;28;20033;-53
2024/03/25 09:39:58;;;;;;;11.48;2.70;;;11.70;99.90;;;;;;5074049;28;20434;-52
2024/03/25 09:42:33;;;;;;;9.75;2.38;;;12.00;99.90;;;;;;5073923;28;20033;-53
2024/03/25 09:44:59;;;;;;;10.65;2.08;;;12.00;99.90;;;;;;5073977;28;20358;-49
2024/03/25 09:47:26;;;;;;;14.95;3.10;;;11.80;99.90;;;;;;5073901;28;20397;-55
2024/03/25 09:49:54;;;;;;;7.45;1.92;;;12.30;99.90;;;;;;5072655;28;20025;-53
2024/03/25 09:52:20;;;;;;;9.73;2.72;;;13.40;99.90;;;;;;5073899;28;20036;-53
2024/03/25 09:54:46;;;;;;;15.90;4.78;;;14.00;97.70;;;;;;5073820;28;20052;-52
2024/03/25 09:57:12;;;;;;;6.72;2.40;;;14.20;98.30;;;;;;5073626;28;20020;-53
2024/03/25 09:59:39;;;;;;;8.13;2.53;;;14.20;97.50;;;;;;5073760;28;20020;-51
2024/03/25 10:02:06;;;;;;;10.00;2.28;;;13.90;97.00;;;;;;5073697;28;20032;-53
2024/03/25 10:04:32;;;;;;;11.25;2.78;;;13.90;98.00;;;;;;5073436;28;20085;-52
2024/03/25 10:06:58;;;;;;;12.15;3.35;;;13.60;97.70;;;;;;5073495;28;20394;-52
2024/03/25 10:09:25;;;;;;;11.68;3.50;;;13.20;97.50;;;;;;5073447;28;20032;-51
2024/03/25 10:11:51;;;;;;;11.18;2.90;;;12.70;99.20;;;;;;5073832;28;20413;-52
2024/03/25 10:14:18;;;;;;;10.00;2.90;;;12.60;99.90;;;;;;5073384;28;20496;-52
2024/03/25 10:16:45;;;;;;;11.10;2.80;;;13.10;98.90;;;;;;5073396;28;20028;-53
2024/03/25 10:19:10;;;;;;;10.05;2.42;;;13.70;98.60;;;;;;5073182;28;20056;-52
2024/03/25 10:21:36;;;;;;;7.97;2.42;;;14.00;99.10;;;;;;5073234;28;20036;-53
2024/03/25 10:24:05;;;;;;;9.02;2.28;;;15.10;97.50;;;;;;5073300;28;20127;-52
2024/03/25 10:26:32;;;;;;;9.30;2.47;;;16.10;94.70;;;;;;5073152;28;20035;-52
2024/03/25 10:29:07;;;;;;;6.82;2.20;;;16.60;93.90;;;;;;5073071;28;20028;-53
2024/03/25 10:31:33;;;;;;;8.98;2.40;;;16.80;92.70;;;;;;5072959;28;20029;-52
2024/03/25 10:33:59;;;;;;;7.85;2.97;;;16.10;92.90;;;;;;5055013;28;20028;-52
2024/03/25 10:36:25;;;;;;;8.57;2.65;;;15.40;93.50;;;;;;5054872;28;20041;-54
2024/03/25 10:39:02;;;;;;;8.75;3.22;;;15.70;94.30;;;;;;5055131;28;20028;-53
2024/03/25 10:41:29;;;;;;;8.15;2.75;;;17.00;92.90;;;;;;5072789;28;20389;-53
2024/03/25 10:43:57;;;;;;;9.93;2.83;;;17.70;91.10;;;;;;5072819;28;20040;-53
2024/03/25 10:46:23;;;;;;;11.45;3.90;;;18.40;89.10;;;;;;5072638;28;20032;-53
2024/03/25 10:49:05;;;;;;;11.63;3.83;;;19.50;82.30;;;;;;5072731;28;20028;-53
2024/03/25 10:51:32;;;;;;;10.13;3.25;;;19.90;80.50;;;;;;5073074;28;20052;-54
2024/03/25 10:53:58;;;;;;;8.50;2.90;;;18.90;81.80;;;;;;5054775;28;20085;-52
2024/03/25 10:56:24;;;;;;;9.57;3.53;;;18.60;78.50;;;;;;5072217;28;20028;-51
2024/03/25 10:58:50;;;;;;;11.48;3.60;;;17.60;82.10;;;;;;5072536;28;20078;-53
2024/03/25 11:01:19;;;;;;;11.52;3.58;;;16.70;84.30;;;;;;5072283;28;20024;-51
2024/03/25 11:03:49;;;;;;;10.15;3.20;;;16.40;89.60;;;;;;5071204;28;20021;-53
2024/03/25 11:06:16;;;;;;;10.10;3.10;;;15.80;86.30;;;;;;5072261;28;20119;-52
2024/03/25 11:08:46;;;;;;;12.10;3.00;;;15.50;87.30;;;;;;5072416;28;20036;-53
2024/03/25 11:11:12;;;;;;;9.18;3.08;;;15.30;89.30;;;;;;5071175;28;20557;-53
2024/03/25 11:13:39;;;;;;;7.65;2.60;;;15.50;88.00;;;;;;5072386;28;20366;-53
2024/03/25 11:16:07;;;;;;;11.52;3.53;;;15.90;87.20;;;;;;5072100;28;20028;-52
2024/03/25 11:18:33;;;;;;;10.07;3.00;;;16.30;85.40;;;;;;5054427;28;20032;-52
2024/03/25 11:21:07;;;;;;;9.50;2.65;;;16.20;88.40;;;;;;5072164;28;20032;-50
2024/03/25 11:23:41;;;;;;;8.65;2.80;;;15.90;88.50;;;;;;5072144;28;20040;-53
2024/03/25 11:26:26;;;;;;;9.13;3.00;;;15.20;90.00;;;;;;5072068;28;20035;-53
2024/03/25 11:28:53;;;;;;;10.00;3.10;;;14.80;88.30;;;;;;5072094;28;20040;-53
2024/03/25 11:31:20;;;;;;;10.43;2.50;;;14.50;91.30;;;;;;5072449;28;20120;-53
2024/03/25 11:33:47;;;;;;;11.25;3.20;;;14.40;90.00;;;;;;5072064;28;20112;-53
2024/03/25 11:36:12;;;;;;;7.05;2.53;;;14.60;89.70;;;;;;5071683;28;20036;-53
2024/03/25 11:38:41;;;;;;;10.57;2.80;;;15.40;87.40;;;;;;5072063;28;20032;-51
2024/03/25 11:41:07;;;;;;;7.93;2.70;;;16.00;88.00;;;;;;5072023;28;20493;-49
2024/03/25 11:43:33;;;;;;;7.95;2.45;;;16.60;86.80;;;;;;5072037;28;20025;-51
2024/03/25 11:45:59;;;;;;;6.30;1.80;;;17.00;82.60;;;;;;5053915;28;20086;-53
2024/03/25 11:48:25;;;;;;;7.43;2.45;;;16.90;78.50;;;;;;5071811;28;20031;-53
2024/03/25 11:50:50;;;;;;;6.22;2.10;;;16.90;78.20;;;;;;5071842;28;20032;-51
2024/03/25 11:53:18;;;;;;;9.40;2.20;;;16.90;77.70;;;;;;5071939;28;20039;-52
2024/03/25 11:55:47;;;;;;;6.65;2.30;;;16.90;80.00;;;;;;5071475;28;20029;-52
2024/03/25 11:58:13;;;;;;;;;;;16.60;81.30;;;;;;5072726;28;20094;-53
2024/03/25 12:00:57;;;;;;;13.10;5.97;;;17.00;81.90;;;;;;5053986;28;20364;-52
2024/03/25 12:03:23;;;;;;;8.75;3.45;;;17.40;81.60;;;;;;5071802;28;20381;-52
2024/03/25 12:05:48;;;;;;;10.45;3.10;;;17.70;80.60;;;;;;5071757;28;20033;-53
2024/03/25 12:08:14;;;;;;;8.77;2.53;;;17.90;78.60;;;;;;5071727;28;20024;-54
2024/03/25 12:13:26;;;;;;;7.78;2.40;;;18.80;70.40;;;;;;5072611;28;20024;-52
2024/03/25 12:15:52;;;;;;;10.07;2.20;;;18.70;71.60;;;;;;5075498;28;20054;-52
2024/03/25 12:18:21;;;;;;;8.07;2.15;;;18.80;70.60;;;;;;5075726;28;20112;-52
2024/03/25 12:20:47;;;;;;;5.70;2.30;;;18.90;69.10;;;;;;5075625;28;20033;-51
2024/03/25 12:23:13;;;;;;;7.22;2.50;;;18.00;71.30;;;;;;5075557;28;20094;-51
2024/03/25 12:25:39;;;;;;;9.10;2.30;;;17.40;70.50;;;;;;5075345;28;20024;-53
2024/03/25 12:28:10;;;;;;;7.55;2.30;;;16.80;73.10;;;;;;5075525;28;20052;-53
2024/03/25 12:30:50;;;;;;;9.07;2.40;;;16.70;71.90;;;;;;5075415;28;20303;-53
2024/03/25 12:33:16;;;;;;;8.30;2.63;;;16.10;75.20;;;;;;5075651;28;20028;-53
2024/03/25 12:35:41;;;;;;;7.75;2.40;;;15.70;76.30;;;;;;5075289;28;20389;-52
2024/03/25 12:38:07;;;;;;;6.75;2.22;;;15.70;75.10;;;;;;5074303;28;20044;-53
2024/03/25 12:40:33;;;;;;;8.02;2.30;;;15.60;77.40;;;;;;5075823;28;20029;-49
2024/03/25 12:42:58;;;;;;;7.38;2.38;;;15.70;78.70;;;;;;5075245;28;20082;-53
2024/03/25 12:45:24;;;;;;;6.80;2.60;;;15.80;75.90;;;;;;5057069;28;20034;-53
2024/03/25 12:47:50;;;;;;;6.63;2.40;;;15.80;79.60;;;;;;5075025;28;20134;-53
2024/03/25 12:50:16;;;;;;;8.35;2.10;;;15.80;80.00;;;;;;5075040;28;20036;-52
2024/03/25 12:52:42;;;;;;;8.48;2.25;;;15.40;77.30;;;;;;5075074;28;20033;-52